Etusivu
METAR-TAF:

METAR-TAF

Lentoasemat :

Corinth, Mississippi, Yhdysvallat

Leveyspiiri: 34-54-54N, Pituuspiiri: 088-36-13W, korkeus merenpinnasta: 130 m

Tämänhetkinen sää

Tämä raportti tehtiin 16 minuuttia sitten, kello 15.15 UTC
Tuuli 14 kn etelästä puuskistuen 22 kn:hen
Lämpötila 17°C
Kosteus 82%
Ilmanpaine 1010 hPa
Näkyvyys: 16.1 km
Pilvistä 1200 ft:n korkeudessa

METAR: KCRX 091515Z AUTO 18014G22KT 10SM OVC012 17/14 A2982 RMK AO2

Aika: 09:31 (15:31 UTC)


TAF: puuttuu

Säähavainnot ja -ennusteet yli 4000 lentoasemalta (METAR- ja TAF-raportit).

Käytössä olevat sääasemat on merkitty karttaan keltaisilla ja punaisilla pisteillä.

Aseta hiiri pisteen päälle nähdäksesi sääaseman nimen.

Klikkaa sitten nähdäksesi säähavainnot ja -ennusteet.

Kartan vaihtaminen: klikkaa mustalla rastilla varustettuja vihreitä pisteitä, niin voit zoomata sisään; viivalla varustettua vihreää pistettä, niin voit zoomata ulos tai vihreitä nuolia, niin pääset viereisille kartoille.


METAR-TAF: